createdAt,value
2022-12-21T00:02:18.823Z,99099.80
2022-12-21T00:05:26.797Z,99100.20
2022-12-21T00:08:36.479Z,99098.00
2022-12-21T00:11:43.349Z,99087.00
2022-12-21T00:14:51.902Z,99082.40
2022-12-21T00:17:59.603Z,99083.60
2022-12-21T00:21:11.765Z,99093.40
2022-12-21T00:24:19.892Z,99086.40
2022-12-21T00:27:27.795Z,99081.60
2022-12-21T00:30:36.194Z,99079.80
2022-12-21T00:33:45.618Z,99089.20
2022-12-21T00:36:56.201Z,99083.20
2022-12-21T00:40:05.686Z,99083.40
2022-12-21T00:43:15.232Z,99084.80
2022-12-21T00:46:26.188Z,99079.80
2022-12-21T00:49:34.186Z,99083.40
2022-12-21T00:52:42.515Z,99085.60
2022-12-21T00:56:01.161Z,99091.40
2022-12-21T00:59:09.452Z,99087.60
2022-12-21T01:02:17.949Z,99084.60
2022-12-21T01:05:26.246Z,99085.60
2022-12-21T01:08:34.621Z,99084.00
2022-12-21T01:11:42.467Z,99075.20
2022-12-21T01:14:50.652Z,99077.80
2022-12-21T01:17:58.653Z,99078.80
2022-12-21T01:21:09.087Z,99074.80
2022-12-21T01:24:19.279Z,99065.80
2022-12-21T01:27:28.061Z,99060.80
2022-12-21T01:30:36.006Z,99051.20
2022-12-21T01:33:44.589Z,99040.60
2022-12-21T01:36:52.830Z,99038.60
2022-12-21T01:40:00.934Z,99047.00
2022-12-21T01:43:40.790Z,99046.40
2022-12-21T01:46:52.420Z,99050.80
2022-12-21T01:50:15.003Z,99038.60
2022-12-21T01:53:30.661Z,99032.60
2022-12-21T01:56:45.220Z,99031.20
2022-12-21T02:00:00.589Z,99028.80
2022-12-21T02:03:15.577Z,99023.00
2022-12-21T02:06:31.888Z,99033.60
2022-12-21T02:09:41.160Z,99019.60
2022-12-21T02:12:52.878Z,99006.80
2022-12-21T02:16:24.445Z,99001.20
2022-12-21T02:20:11.565Z,98999.00
2022-12-21T02:23:52.676Z,98994.60
2022-12-21T02:27:40.270Z,98993.60
2022-12-21T02:31:23.999Z,98979.80
2022-12-21T02:34:43.301Z,98976.00
2022-12-21T02:38:02.645Z,98971.40
2022-12-21T02:41:24.923Z,98971.20
2022-12-21T02:44:48.889Z,98973.40
2022-12-21T02:48:07.657Z,98976.00
2022-12-21T02:51:22.444Z,98971.60
2022-12-21T02:54:30.949Z,98969.00
2022-12-21T02:57:42.230Z,98964.60
2022-12-21T03:01:11.637Z,98967.20
2022-12-21T03:04:57.427Z,98969.00
2022-12-21T03:08:23.037Z,98957.20
2022-12-21T03:11:43.381Z,98953.40
2022-12-21T03:15:05.357Z,98944.20
2022-12-21T03:18:26.493Z,98934.40
2022-12-21T03:21:41.714Z,98942.80
2022-12-21T03:24:58.931Z,98933.60
2022-12-21T03:28:14.914Z,98938.40
2022-12-21T03:31:28.916Z,98925.20
2022-12-21T03:34:43.455Z,98923.40
2022-12-21T03:37:56.396Z,98929.00
2022-12-21T03:41:12.643Z,98938.80
2022-12-21T03:44:29.728Z,98944.20
2022-12-21T03:47:43.578Z,98951.00
2022-12-21T03:50:56.662Z,98962.60
2022-12-21T03:54:12.574Z,98964.40
2022-12-21T03:57:22.384Z,98968.60
2022-12-21T04:00:29.275Z,98968.00
2022-12-21T04:03:43.260Z,98966.00
2022-12-21T04:06:55.340Z,98961.20
2022-12-21T04:10:09.342Z,98943.60
2022-12-21T04:13:17.023Z,98939.40
2022-12-21T04:16:25.186Z,98931.80
2022-12-21T04:20:05.595Z,98933.00
2022-12-21T04:23:33.285Z,98924.00
2022-12-21T04:26:54.823Z,98916.00
2022-12-21T04:30:02.452Z,98919.60
2022-12-21T04:33:13.602Z,98924.20
2022-12-21T04:36:41.242Z,98931.20
2022-12-21T04:39:49.271Z,98924.00
2022-12-21T04:42:57.257Z,98929.40
2022-12-21T04:46:10.494Z,98926.60
2022-12-21T04:49:18.393Z,98919.00
2022-12-21T04:52:26.946Z,98921.40
2022-12-21T04:55:34.943Z,98902.00
2022-12-21T04:58:43.791Z,98911.60
2022-12-21T05:01:52.248Z,98902.20
2022-12-21T05:05:00.190Z,98901.80
2022-12-21T05:08:09.010Z,98899.80
2022-12-21T05:11:20.567Z,98890.60
2022-12-21T05:14:28.518Z,98887.00
2022-12-21T05:17:37.032Z,98885.60
2022-12-21T05:20:53.404Z,98884.80
2022-12-21T05:24:03.579Z,98879.60
2022-12-21T05:27:12.239Z,98890.40
2022-12-21T05:30:20.927Z,98882.00
2022-12-21T05:33:29.273Z,98891.40
2022-12-21T05:36:37.879Z,98882.00
2022-12-21T05:39:45.740Z,98888.80
2022-12-21T05:42:53.987Z,98884.00
2022-12-21T05:46:05.937Z,98888.60
2022-12-21T05:49:14.800Z,98881.80
2022-12-21T05:52:22.641Z,98877.60
2022-12-21T05:55:31.951Z,98886.80
2022-12-21T05:58:39.864Z,98886.00
2022-12-21T06:01:47.801Z,98900.20
2022-12-21T06:04:56.275Z,98895.80
2022-12-21T06:08:05.536Z,98886.40
2022-12-21T06:11:17.036Z,98893.60
2022-12-21T06:14:25.043Z,98882.20
2022-12-21T06:17:33.995Z,98876.60
2022-12-21T06:20:41.776Z,98881.00
2022-12-21T06:23:54.060Z,98889.60
2022-12-21T06:27:02.087Z,98891.00
2022-12-21T06:30:14.740Z,98898.80
2022-12-21T06:33:24.905Z,98895.60
2022-12-21T06:36:34.828Z,98885.80
2022-12-21T06:39:43.229Z,98892.40
2022-12-21T06:42:51.420Z,98878.40
2022-12-21T06:46:02.018Z,98875.00
2022-12-21T06:49:09.961Z,98869.60
2022-12-21T06:52:17.809Z,98869.00
2022-12-21T06:55:26.070Z,98885.80
2022-12-21T06:58:34.824Z,98880.80
2022-12-21T07:01:43.031Z,98878.80
2022-12-21T07:04:53.793Z,98876.00
2022-12-21T07:08:01.479Z,98867.60
2022-12-21T07:11:13.109Z,98864.40
2022-12-21T07:14:21.520Z,98869.60
2022-12-21T07:17:30.161Z,98857.20
2022-12-21T07:20:38.118Z,98865.20
2022-12-21T07:23:52.021Z,98858.00
2022-12-21T07:27:02.399Z,98866.80
2022-12-21T07:30:16.037Z,98868.40
2022-12-21T07:33:24.842Z,98857.20
2022-12-21T07:36:33.316Z,98856.40
2022-12-21T07:39:41.504Z,98856.40
2022-12-21T07:42:50.310Z,98853.40
2022-12-21T07:45:59.061Z,98861.40
2022-12-21T07:49:07.502Z,98848.40
2022-12-21T07:52:15.314Z,98856.20
2022-12-21T07:55:23.451Z,98863.00
2022-12-21T07:58:31.466Z,98866.80
2022-12-21T08:01:40.070Z,98871.60
2022-12-21T08:04:48.254Z,98865.40
2022-12-21T08:07:56.127Z,98865.80
2022-12-21T08:11:03.830Z,98858.00
2022-12-21T08:14:12.619Z,98860.60
2022-12-21T08:17:23.577Z,98859.20
2022-12-21T08:20:31.708Z,98860.40
2022-12-21T08:23:40.587Z,98863.20
2022-12-21T08:26:49.338Z,98860.40
2022-12-21T08:29:58.348Z,98854.60
2022-12-21T08:33:07.650Z,98855.60
2022-12-21T08:36:19.134Z,98852.00
2022-12-21T08:39:27.174Z,98856.80
2022-12-21T08:42:35.027Z,98864.60
2022-12-21T08:45:45.101Z,98857.00
2022-12-21T08:48:53.810Z,98858.60
2022-12-21T08:52:01.969Z,98856.60
2022-12-21T08:55:13.255Z,98857.60
2022-12-21T08:58:21.970Z,98855.20
2022-12-21T09:01:30.643Z,98857.20
2022-12-21T09:04:39.633Z,98863.40
2022-12-21T09:07:48.415Z,98862.20
2022-12-21T09:11:05.363Z,98855.40
2022-12-21T09:14:13.265Z,98851.80
2022-12-21T09:17:27.413Z,98842.40
2022-12-21T09:20:37.343Z,98840.40
2022-12-21T09:23:48.126Z,98833.20
2022-12-21T09:26:56.103Z,98828.60
2022-12-21T09:30:04.229Z,98837.40
2022-12-21T09:33:12.815Z,98835.80
2022-12-21T09:36:21.982Z,98844.40
2022-12-21T09:39:30.229Z,98836.20
2022-12-21T09:42:58.654Z,98839.60
2022-12-21T09:46:14.820Z,98836.20
2022-12-21T09:49:26.982Z,98835.00
2022-12-21T09:52:38.941Z,98833.60
2022-12-21T09:55:52.443Z,98831.60
2022-12-21T09:59:05.435Z,98825.40
2022-12-21T10:02:36.578Z,98822.40
2022-12-21T10:06:04.337Z,98819.00
2022-12-21T10:09:39.722Z,98812.00
2022-12-21T10:13:04.495Z,98801.40
2022-12-21T10:16:43.683Z,98785.20
2022-12-21T10:20:04.408Z,98777.80
2022-12-21T10:23:26.664Z,98770.60
2022-12-21T10:26:39.979Z,98768.20
2022-12-21T10:29:55.775Z,98767.40
2022-12-21T10:33:04.975Z,98762.60
2022-12-21T10:36:21.106Z,98766.40
2022-12-21T10:39:30.731Z,98767.60
2022-12-21T10:42:44.305Z,98761.00
2022-12-21T10:45:53.518Z,98762.80
2022-12-21T10:49:09.120Z,98762.60
2022-12-21T10:52:40.200Z,98762.60
2022-12-21T10:55:50.250Z,98768.00
2022-12-21T10:59:08.170Z,98761.20
2022-12-21T11:02:41.668Z,98763.60
2022-12-21T11:05:50.142Z,98763.60
2022-12-21T11:09:00.144Z,98757.00
2022-12-21T11:12:16.830Z,98751.20
2022-12-21T11:16:00.641Z,98749.40
2022-12-21T11:19:03.508Z,98752.40
2022-12-21T11:22:57.288Z,98741.80
2022-12-21T11:25:46.989Z,98731.80
2022-12-21T11:29:02.998Z,98731.20
2022-12-21T11:32:14.981Z,98734.80
2022-12-21T11:35:27.299Z,98722.00
2022-12-21T11:38:40.978Z,98725.40
2022-12-21T11:41:56.682Z,98729.00
2022-12-21T11:45:26.759Z,98724.00
2022-12-21T11:48:55.129Z,98720.60
2022-12-21T11:52:24.702Z,98721.00
2022-12-21T11:55:41.733Z,98715.00
2022-12-21T11:59:22.427Z,98709.20
2022-12-21T12:02:58.748Z,98707.00
2022-12-21T12:06:43.572Z,98711.00
2022-12-21T12:10:13.547Z,98710.20
2022-12-21T12:13:43.688Z,98710.80
2022-12-21T12:17:11.204Z,98703.60
2022-12-21T12:20:46.265Z,98708.00
2022-12-21T12:24:13.665Z,98707.40
2022-12-21T12:27:44.287Z,98701.40
2022-12-21T12:31:15.536Z,98702.00
2022-12-21T12:34:59.611Z,98705.20
2022-12-21T12:38:21.287Z,98699.60
2022-12-21T12:41:46.465Z,98694.40
2022-12-21T12:45:09.201Z,98693.60
2022-12-21T12:48:32.271Z,98696.60
2022-12-21T12:51:45.274Z,98702.80
2022-12-21T12:55:13.813Z,98706.00
2022-12-21T12:58:31.514Z,98697.40
2022-12-21T13:01:54.424Z,98696.80
2022-12-21T13:05:34.095Z,98694.80
2022-12-21T13:08:58.487Z,98690.20
2022-12-21T13:12:14.512Z,98687.20
2022-12-21T13:15:37.352Z,98681.20
2022-12-21T13:18:52.009Z,98681.60
2022-12-21T13:22:06.819Z,98687.20
2022-12-21T13:25:27.227Z,98688.60
2022-12-21T13:28:45.621Z,98685.60
2022-12-21T13:32:00.872Z,98683.40
2022-12-21T13:35:23.140Z,98686.20
2022-12-21T13:38:38.688Z,98682.00
2022-12-21T13:41:53.013Z,98685.00
2022-12-21T13:45:06.572Z,98682.20
2022-12-21T13:48:20.030Z,98676.60
2022-12-21T13:51:44.354Z,98684.60
2022-12-21T13:55:07.152Z,98681.20
2022-12-21T13:58:31.828Z,98681.00
2022-12-21T14:01:51.349Z,98676.00
2022-12-21T14:05:03.062Z,98671.00
2022-12-21T14:08:43.608Z,98666.40
2022-12-21T14:12:37.697Z,98662.00
2022-12-21T14:16:02.109Z,98664.20
2022-12-21T14:19:23.075Z,98668.00
2022-12-21T14:22:49.607Z,98678.00
2022-12-21T14:25:59.123Z,98677.00
2022-12-21T14:29:19.747Z,98690.80
2022-12-21T14:32:28.055Z,98690.80
2022-12-21T14:35:45.212Z,98688.00
2022-12-21T14:39:35.760Z,98697.20
2022-12-21T14:43:01.539Z,98693.80
2022-12-21T14:46:30.473Z,98684.80
2022-12-21T14:49:40.670Z,98677.40
2022-12-21T14:53:03.804Z,98672.20
2022-12-21T14:56:18.818Z,98665.20
2022-12-21T14:59:28.556Z,98665.20
2022-12-21T15:02:47.983Z,98672.60
2022-12-21T15:06:09.255Z,98672.40
2022-12-21T15:09:31.576Z,98684.40
2022-12-21T15:12:46.753Z,98683.20
2022-12-21T15:16:18.779Z,98684.20
2022-12-21T15:19:53.089Z,98683.00
2022-12-21T15:23:01.904Z,98683.60
2022-12-21T15:26:21.258Z,98692.00
2022-12-21T15:29:36.284Z,98693.80
2022-12-21T15:32:55.032Z,98687.40
2022-12-21T15:36:09.657Z,98687.20
2022-12-21T15:39:28.289Z,98684.00
2022-12-21T15:42:45.807Z,98683.80
2022-12-21T15:46:01.716Z,98677.00
2022-12-21T15:49:21.624Z,98681.40
2022-12-21T15:52:36.307Z,98679.80
2022-12-21T15:55:49.679Z,98672.60
2022-12-21T15:58:59.918Z,98670.40
2022-12-21T16:02:22.019Z,98670.80
2022-12-21T16:05:34.984Z,98665.20
2022-12-21T16:08:46.015Z,98665.80
2022-12-21T16:12:19.841Z,98667.40
2022-12-21T16:15:38.829Z,98670.20
2022-12-21T16:18:46.808Z,98669.80
2022-12-21T16:21:56.193Z,98675.80
2022-12-21T16:25:38.169Z,98676.20
2022-12-21T16:28:48.552Z,98678.40
2022-12-21T16:31:58.103Z,98676.60
2022-12-21T16:35:08.180Z,98667.00
2022-12-21T16:38:16.506Z,98662.00
2022-12-21T16:41:25.323Z,98661.80
2022-12-21T16:44:46.052Z,98671.20
2022-12-21T16:48:22.014Z,98666.80
2022-12-21T16:51:44.528Z,98668.60
2022-12-21T16:54:52.263Z,98673.00
2022-12-21T16:58:15.324Z,98683.00
2022-12-21T17:01:27.754Z,98676.00
2022-12-21T17:04:39.447Z,98679.20
2022-12-21T17:07:49.353Z,98691.20
2022-12-21T17:11:09.019Z,98685.40
2022-12-21T17:14:20.074Z,98678.00
2022-12-21T17:17:46.484Z,98673.20
2022-12-21T17:21:15.905Z,98671.40
2022-12-21T17:24:38.650Z,98671.60
2022-12-21T17:27:57.579Z,98671.40
2022-12-21T17:31:14.862Z,98671.80
2022-12-21T17:34:28.754Z,98673.20
2022-12-21T17:37:36.796Z,98673.80
2022-12-21T17:40:45.190Z,98676.80
2022-12-21T17:43:56.189Z,98667.60
2022-12-21T17:47:11.362Z,98665.20
2022-12-21T17:50:25.528Z,98661.00
2022-12-21T17:53:34.233Z,98656.60
2022-12-21T17:56:43.567Z,98650.20
2022-12-21T17:59:51.612Z,98644.80
2022-12-21T18:03:14.945Z,98636.00
2022-12-21T18:06:25.268Z,98639.00
2022-12-21T18:09:34.841Z,98639.20
2022-12-21T18:12:42.685Z,98644.40
2022-12-21T18:16:00.182Z,98623.40
2022-12-21T18:19:15.030Z,98632.20
2022-12-21T18:22:22.769Z,98622.40
2022-12-21T18:25:30.610Z,98617.20
2022-12-21T18:28:40.411Z,98615.60
2022-12-21T18:31:48.328Z,98623.40
2022-12-21T18:34:56.180Z,98623.00
2022-12-21T18:38:11.108Z,98624.40
2022-12-21T18:41:22.604Z,98626.00
2022-12-21T18:44:33.295Z,98630.00
2022-12-21T18:47:41.545Z,98628.40
2022-12-21T18:50:49.630Z,98628.40
2022-12-21T18:53:59.232Z,98623.80
2022-12-21T18:57:18.579Z,98618.00
2022-12-21T19:00:27.115Z,98625.00
2022-12-21T19:03:35.467Z,98627.60
2022-12-21T19:06:43.955Z,98616.80
2022-12-21T19:09:52.382Z,98609.40
2022-12-21T19:13:06.852Z,98611.20
2022-12-21T19:16:28.017Z,98618.40
2022-12-21T19:19:36.938Z,98612.20
2022-12-21T19:22:45.219Z,98619.80
2022-12-21T19:25:56.991Z,98622.60
2022-12-21T19:29:15.053Z,98630.40
2022-12-21T19:32:23.084Z,98625.20
2022-12-21T19:35:32.661Z,98623.60
2022-12-21T19:38:40.634Z,98624.00
2022-12-21T19:41:48.460Z,98619.00
2022-12-21T19:44:57.418Z,98621.20
2022-12-21T19:48:11.316Z,98619.60
2022-12-21T19:51:19.462Z,98615.00
2022-12-21T19:54:27.747Z,98613.80
2022-12-21T19:57:41.554Z,98623.20
2022-12-21T20:00:49.656Z,98617.40
2022-12-21T20:03:57.532Z,98613.80
2022-12-21T20:07:08.327Z,98611.40
2022-12-21T20:10:17.898Z,98615.20
2022-12-21T20:13:26.529Z,98617.20
2022-12-21T20:16:35.481Z,98615.80
2022-12-21T20:19:43.793Z,98620.20
2022-12-21T20:22:54.555Z,98622.60
2022-12-21T20:26:02.306Z,98629.20
2022-12-21T20:29:16.240Z,98640.20
2022-12-21T20:32:25.597Z,98637.20
2022-12-21T20:39:13.099Z,98638.60
2022-12-21T20:42:44.185Z,98635.80
2022-12-21T20:45:52.009Z,98632.80
2022-12-21T20:49:00.472Z,98624.80
2022-12-21T20:52:18.755Z,98614.40
2022-12-21T20:55:44.997Z,98618.20
2022-12-21T20:58:53.067Z,98607.40
2022-12-21T21:02:01.939Z,98602.60
2022-12-21T21:05:22.248Z,98600.40
2022-12-21T21:08:34.786Z,98598.40
2022-12-21T21:11:54.932Z,98603.00
2022-12-21T21:15:05.633Z,98603.20
2022-12-21T21:18:23.437Z,98600.40
2022-12-21T21:21:53.911Z,98603.60
2022-12-21T21:25:03.392Z,98598.00
2022-12-21T21:28:22.410Z,98592.80
2022-12-21T21:31:30.391Z,98592.00
2022-12-21T21:34:38.715Z,98599.80
2022-12-21T21:38:08.860Z,98597.80
2022-12-21T21:41:34.274Z,98588.60
2022-12-21T21:44:42.887Z,98585.20
2022-12-21T21:47:51.000Z,98581.80
2022-12-21T21:50:58.932Z,98572.80
2022-12-21T21:54:07.261Z,98578.60
2022-12-21T21:57:33.014Z,98587.60
2022-12-21T22:00:43.396Z,98596.20
2022-12-21T22:03:52.699Z,98603.80
2022-12-21T22:10:28.163Z,98600.80
2022-12-21T22:13:36.588Z,98604.40
2022-12-21T22:20:46.703Z,98600.00
2022-12-21T22:24:20.683Z,98597.80
2022-12-21T22:27:46.242Z,98591.00
2022-12-21T22:31:23.824Z,98593.20
2022-12-21T22:34:59.596Z,98599.00
2022-12-21T22:38:28.023Z,98605.40
2022-12-21T22:41:53.503Z,98608.20
2022-12-21T22:45:19.219Z,98604.60
2022-12-21T22:48:27.311Z,98603.60
2022-12-21T22:51:36.971Z,98603.80
2022-12-21T22:54:45.234Z,98601.80
2022-12-21T22:57:53.321Z,98596.80
2022-12-21T23:01:02.746Z,98597.80
2022-12-21T23:04:21.042Z,98602.40
2022-12-21T23:07:29.387Z,98593.60
2022-12-21T23:10:39.005Z,98592.40
2022-12-21T23:14:04.961Z,98597.80
2022-12-21T23:17:40.805Z,98591.40
2022-12-21T23:21:09.027Z,98594.20
2022-12-21T23:24:47.181Z,98593.80
2022-12-21T23:27:58.219Z,98586.00
2022-12-21T23:31:38.387Z,98583.60
2022-12-21T23:35:03.503Z,98573.60
2022-12-21T23:38:31.928Z,98577.20
2022-12-21T23:41:57.652Z,98576.00
2022-12-21T23:45:07.001Z,98575.00
2022-12-21T23:48:37.091Z,98569.20
2022-12-21T23:52:03.140Z,98569.20
2022-12-21T23:55:35.979Z,98564.40
2022-12-21T23:59:01.198Z,98562.40
